createdAt,value
2017-12-22T04:31:07.997Z,22.40
2017-12-22T04:33:36.336Z,26.12
2017-12-22T04:36:03.912Z,19.60
2017-12-22T04:38:31.532Z,24.20
2017-12-22T04:40:59.113Z,24.73
2017-12-22T04:43:26.693Z,24.40
2017-12-22T04:45:54.322Z,21.98
2017-12-22T04:48:21.901Z,23.40
2017-12-22T04:50:49.486Z,23.52
2017-12-22T04:53:17.854Z,21.85
2017-12-22T04:55:45.481Z,19.58
2017-12-22T04:58:13.053Z,21.73
2017-12-22T05:00:40.626Z,21.55
2017-12-22T05:03:09.753Z,24.20
2017-12-22T05:05:37.329Z,20.77
2017-12-22T05:08:04.906Z,22.83
2017-12-22T05:10:32.507Z,20.65
2017-12-22T05:13:00.845Z,24.45
2017-12-22T05:15:28.478Z,23.98
2017-12-22T05:17:56.062Z,24.05
2017-12-22T05:20:23.633Z,23.40
2017-12-22T05:22:51.266Z,23.85
2017-12-22T05:25:18.846Z,21.23
2017-12-22T05:27:46.426Z,24.33
2017-12-22T05:30:14.021Z,27.13
2017-12-22T05:32:41.710Z,25.12
2017-12-22T05:35:09.304Z,24.63
2017-12-22T05:37:36.877Z,29.05
2017-12-22T05:40:05.217Z,22.77
2017-12-22T05:42:32.829Z,23.10
2017-12-22T05:45:01.174Z,25.62
2017-12-22T05:47:28.753Z,25.83
2017-12-22T05:49:57.125Z,25.00
2017-12-22T05:52:25.470Z,29.42
2017-12-22T05:54:53.045Z,29.70
2017-12-22T05:57:20.670Z,25.98
2017-12-22T05:59:48.253Z,27.60
2017-12-22T06:02:16.629Z,31.70
2017-12-22T06:04:44.258Z,26.12
2017-12-22T06:07:11.845Z,32.13
2017-12-22T06:09:39.432Z,31.55
2017-12-22T06:12:07.801Z,29.00
2017-12-22T06:14:35.429Z,30.08
2017-12-22T06:17:03.006Z,28.05
2017-12-22T06:19:30.586Z,30.17
2017-12-22T06:21:58.970Z,27.60
2017-12-22T06:24:27.313Z,29.50
2017-12-22T06:26:54.894Z,28.23
2017-12-22T06:29:22.514Z,25.62
2017-12-22T06:31:50.101Z,33.75
2017-12-22T06:34:17.712Z,26.60
2017-12-22T06:36:45.293Z,25.62
2017-12-22T06:39:12.877Z,25.58
2017-12-22T06:41:40.510Z,27.62
2017-12-22T06:44:08.114Z,27.08
2017-12-22T06:46:36.453Z,28.30
2017-12-22T06:49:04.064Z,36.78
2017-12-22T06:51:32.406Z,43.17
2017-12-22T06:54:00.061Z,38.13
2017-12-22T06:56:27.799Z,39.70
2017-12-22T06:58:55.377Z,46.67
2017-12-22T07:01:22.961Z,49.80
2017-12-22T07:03:50.618Z,29.80
2017-12-22T07:06:18.197Z,30.88
2017-12-22T07:08:46.542Z,27.25
2017-12-22T07:11:14.157Z,26.58
2017-12-22T07:13:41.737Z,28.60
2017-12-22T07:16:09.313Z,29.05
2017-12-22T07:18:36.925Z,31.35
2017-12-22T07:21:04.506Z,29.12
2017-12-22T07:23:32.089Z,30.23
2017-12-22T07:25:59.702Z,27.42
2017-12-22T07:28:27.285Z,28.25
2017-12-22T07:30:54.866Z,26.40
2017-12-22T07:33:22.477Z,29.63
2017-12-22T07:35:50.050Z,27.02
2017-12-22T07:38:17.641Z,27.05
2017-12-22T07:40:45.246Z,28.23
2017-12-22T07:43:12.826Z,26.90
2017-12-22T07:45:40.405Z,27.15
2017-12-22T07:48:08.017Z,29.15
2017-12-22T07:50:36.358Z,29.00
2017-12-22T07:53:03.986Z,33.17
2017-12-22T07:55:31.566Z,27.60
2017-12-22T07:57:59.147Z,26.10
2017-12-22T08:00:26.745Z,28.55
2017-12-22T08:02:54.326Z,28.50
2017-12-22T08:05:21.905Z,49.47
2017-12-22T08:07:49.518Z,30.62
2017-12-22T08:10:17.097Z,25.12
2017-12-22T08:12:44.781Z,26.73
2017-12-22T08:15:12.423Z,26.00
2017-12-22T08:17:40.007Z,30.27
2017-12-22T08:20:07.614Z,25.40
2017-12-22T08:22:35.189Z,24.50
2017-12-22T08:25:02.794Z,28.12
2017-12-22T08:27:31.189Z,31.40
2017-12-22T08:29:59.533Z,29.05
2017-12-22T08:32:27.114Z,29.12
2017-12-22T08:34:54.737Z,27.25
2017-12-22T08:37:22.313Z,28.52
2017-12-22T08:39:49.903Z,26.70
2017-12-22T08:42:18.268Z,27.87
2017-12-22T08:44:45.855Z,25.92
2017-12-22T08:47:13.469Z,28.85
2017-12-22T08:49:41.053Z,25.02
2017-12-22T08:52:09.402Z,27.67
2017-12-22T08:54:37.006Z,29.40
2017-12-22T08:57:04.586Z,28.05
2017-12-22T08:59:32.163Z,30.80
2017-12-22T09:01:59.790Z,27.48
2017-12-22T09:04:27.370Z,32.05
2017-12-22T09:06:54.945Z,28.92
2017-12-22T09:09:22.563Z,31.55
2017-12-22T09:11:50.143Z,32.20
2017-12-22T09:14:17.722Z,30.55
2017-12-22T09:16:45.333Z,29.00
2017-12-22T09:19:12.910Z,31.48
2017-12-22T09:21:40.494Z,38.70
2017-12-22T09:24:08.134Z,37.30
2017-12-22T09:26:35.709Z,34.85
2017-12-22T09:29:03.286Z,34.85
2017-12-22T09:31:30.930Z,30.08
2017-12-22T09:33:58.513Z,36.40
2017-12-22T09:36:26.094Z,30.83
2017-12-22T09:38:54.462Z,34.50
2017-12-22T09:41:22.857Z,36.63
2017-12-22T09:43:51.246Z,36.55
2017-12-22T09:46:18.862Z,30.80
2017-12-22T09:48:46.491Z,30.65
2017-12-22T09:51:14.069Z,28.35
2017-12-22T09:53:41.651Z,29.80
2017-12-22T09:56:10.238Z,32.10
2017-12-22T09:58:38.577Z,30.83
2017-12-22T10:01:06.158Z,28.98
2017-12-22T10:03:33.778Z,31.55
2017-12-22T10:06:01.361Z,29.33
2017-12-22T10:08:28.933Z,35.40
2017-12-22T10:10:56.546Z,30.02
2017-12-22T10:13:24.121Z,37.75
2017-12-22T10:15:51.705Z,35.72
2017-12-22T10:18:19.324Z,39.30
2017-12-22T10:20:46.910Z,34.20
2017-12-22T10:23:14.516Z,33.67
2017-12-22T10:25:42.906Z,34.20
2017-12-22T10:28:10.490Z,32.88
2017-12-22T10:30:38.065Z,38.22
2017-12-22T10:33:05.665Z,35.83
2017-12-22T10:35:34.037Z,40.25
2017-12-22T10:38:02.382Z,37.83
2017-12-22T10:40:29.961Z,34.33
2017-12-22T10:42:57.577Z,37.55
2017-12-22T10:45:25.158Z,42.30
2017-12-22T10:47:52.737Z,38.55
2017-12-22T10:50:20.342Z,44.08
2017-12-22T10:52:47.925Z,43.97
2017-12-22T10:55:15.541Z,46.03
2017-12-22T10:57:43.126Z,45.58
2017-12-22T11:00:10.714Z,45.65
2017-12-22T11:02:38.317Z,41.45
2017-12-22T11:05:05.898Z,46.33
2017-12-22T11:07:33.533Z,46.00
2017-12-22T11:10:01.878Z,44.03
2017-12-22T11:12:29.456Z,47.95
2017-12-22T11:14:57.850Z,44.03
2017-12-22T11:17:25.429Z,43.45
2017-12-22T11:19:53.001Z,45.05
2017-12-22T11:22:20.667Z,43.55
2017-12-22T11:24:48.246Z,46.42
2017-12-22T11:27:15.829Z,41.33
2017-12-22T11:29:44.205Z,52.55
2017-12-22T11:32:12.549Z,46.95
2017-12-22T11:34:40.129Z,47.30
2017-12-22T11:37:08.491Z,44.63
2017-12-22T11:39:36.132Z,53.03
2017-12-22T11:42:03.942Z,54.90
2017-12-22T11:44:32.282Z,53.08
2017-12-22T11:46:59.989Z,48.60
2017-12-22T11:49:27.569Z,56.42
2017-12-22T11:51:55.180Z,52.00
2017-12-22T11:54:22.761Z,45.60
2017-12-22T11:56:51.106Z,51.05
2017-12-22T11:59:19.474Z,57.65
2017-12-22T12:01:47.051Z,49.70
2017-12-22T12:04:14.634Z,59.50
2017-12-22T12:06:43.006Z,59.03
2017-12-22T12:09:11.354Z,53.85
2017-12-22T12:11:38.933Z,51.40
2017-12-22T12:14:07.318Z,52.05
2017-12-22T12:16:35.662Z,55.55
2017-12-22T12:19:03.251Z,58.13
2017-12-22T12:21:31.621Z,56.90
2017-12-22T12:23:59.198Z,54.33
2017-12-22T12:26:27.545Z,54.75
2017-12-22T12:28:55.142Z,52.70
2017-12-22T12:31:22.751Z,57.85
2017-12-22T12:33:50.365Z,58.90
2017-12-22T12:36:17.941Z,47.50
2017-12-22T12:38:45.521Z,51.00
2017-12-22T12:41:13.157Z,47.10
2017-12-22T12:43:40.734Z,54.15
2017-12-22T12:46:08.317Z,53.33
2017-12-22T12:48:36.104Z,54.20
2017-12-22T12:51:04.454Z,53.00
2017-12-22T12:53:32.037Z,60.30
2017-12-22T12:56:00.422Z,51.78
2017-12-22T12:58:28.773Z,52.25
2017-12-22T13:00:56.358Z,54.20
2017-12-22T13:03:24.730Z,54.90
2017-12-22T13:05:53.069Z,55.03
2017-12-22T13:08:20.647Z,54.83
2017-12-22T13:10:48.255Z,64.50
2017-12-22T13:13:15.837Z,58.67
2017-12-22T13:15:43.457Z,65.10
2017-12-22T13:18:11.032Z,66.47
2017-12-22T13:20:38.605Z,59.45
2017-12-22T13:23:06.209Z,62.20
2017-12-22T13:25:34.558Z,57.92
2017-12-22T13:28:02.142Z,62.30
2017-12-22T13:30:30.540Z,69.68
2017-12-22T13:32:58.901Z,65.05
2017-12-22T13:35:27.249Z,67.55
2017-12-22T13:37:54.864Z,62.10
2017-12-22T13:40:22.446Z,62.80
2017-12-22T13:42:50.953Z,75.35
2017-12-22T13:45:18.538Z,62.58
2017-12-22T13:47:46.882Z,65.65
2017-12-22T13:50:14.513Z,64.18
2017-12-22T13:52:42.098Z,71.45
2017-12-22T13:55:09.681Z,70.43
2017-12-22T13:57:37.316Z,65.87
2017-12-22T14:00:04.896Z,67.35
2017-12-22T14:02:32.477Z,67.53
2017-12-22T14:05:00.887Z,72.70
2017-12-22T14:07:28.471Z,70.87
2017-12-22T14:09:56.091Z,77.37
2017-12-22T14:12:23.689Z,80.12
2017-12-22T14:14:51.264Z,77.97
2017-12-22T14:17:19.046Z,82.15
2017-12-22T14:19:47.473Z,82.18
2017-12-22T14:22:15.049Z,82.43
2017-12-22T14:24:42.658Z,80.70
2017-12-22T14:27:10.242Z,80.28
2017-12-22T14:29:37.822Z,95.75
2017-12-22T14:32:05.453Z,86.50
2017-12-22T14:34:33.029Z,83.40
2017-12-22T14:37:00.609Z,97.60
2017-12-22T14:39:28.234Z,91.43
2017-12-22T14:41:55.822Z,81.85
2017-12-22T14:44:23.497Z,88.22
2017-12-22T14:46:51.101Z,87.28
2017-12-22T14:49:18.725Z,68.87
2017-12-22T14:51:46.305Z,63.05
2017-12-22T14:54:14.654Z,64.80
2017-12-22T14:56:42.282Z,62.88
2017-12-22T14:59:09.911Z,53.95
2017-12-22T15:01:38.229Z,61.30
2017-12-22T15:04:06.809Z,69.40
2017-12-22T15:06:34.389Z,65.40
2017-12-22T15:09:02.833Z,68.43
2017-12-22T15:11:30.434Z,62.55
2017-12-22T15:13:58.037Z,66.28
2017-12-22T15:16:25.617Z,63.47
2017-12-22T15:18:53.202Z,60.97
2017-12-22T15:21:20.807Z,65.93
2017-12-22T15:23:48.450Z,59.85
2017-12-22T15:26:16.794Z,58.40
2017-12-22T15:28:44.373Z,54.20
2017-12-22T15:31:12.747Z,55.97
2017-12-22T15:33:41.123Z,59.03
2017-12-22T15:36:09.474Z,60.63
2017-12-22T15:38:37.077Z,59.10
2017-12-22T15:41:04.658Z,57.50
2017-12-22T15:43:32.240Z,62.50
2017-12-22T15:45:59.854Z,55.15
2017-12-22T15:48:28.198Z,57.13
2017-12-22T15:50:55.781Z,58.92
2017-12-22T15:53:24.182Z,63.17
2017-12-22T15:55:51.768Z,60.78
2017-12-22T15:58:19.350Z,44.83
2017-12-22T16:00:46.969Z,56.97
2017-12-22T16:03:14.550Z,54.75
2017-12-22T16:05:42.138Z,57.13
2017-12-22T16:08:10.525Z,55.30
2017-12-22T16:10:38.867Z,58.15
2017-12-22T16:13:06.445Z,55.58
2017-12-22T16:15:34.178Z,55.53
2017-12-22T16:18:01.762Z,56.95
2017-12-22T16:20:29.341Z,56.22
2017-12-22T16:22:56.969Z,65.70
2017-12-22T16:25:24.554Z,62.38
2017-12-22T16:27:52.897Z,63.97
2017-12-22T16:30:20.530Z,57.05
2017-12-22T16:32:48.107Z,61.53
2017-12-22T16:35:15.697Z,63.80
2017-12-22T16:37:44.067Z,64.75
2017-12-22T16:40:11.641Z,70.55
2017-12-22T16:42:40.037Z,75.55
2017-12-22T16:45:08.382Z,65.03
2017-12-22T16:47:35.971Z,69.95
2017-12-22T16:50:04.528Z,62.17
2017-12-22T16:52:32.886Z,67.30
2017-12-22T16:55:00.466Z,66.68
2017-12-22T16:57:28.238Z,79.18
2017-12-22T16:59:56.577Z,71.95
2017-12-22T17:02:24.161Z,60.42
2017-12-22T17:04:51.834Z,60.30
2017-12-22T17:07:20.902Z,64.85
2017-12-22T17:09:48.480Z,55.45
2017-12-22T17:12:16.110Z,46.75
2017-12-22T17:14:43.694Z,67.20
2017-12-22T17:17:11.315Z,56.72
2017-12-22T17:19:38.922Z,53.08
2017-12-22T17:22:07.278Z,56.45
2017-12-22T17:24:34.853Z,54.85
2017-12-22T17:27:03.249Z,63.25
2017-12-22T17:29:31.593Z,54.05
2017-12-22T17:31:59.175Z,54.25
2017-12-22T17:34:27.545Z,54.10
2017-12-22T17:36:55.901Z,54.38
2017-12-22T17:39:23.542Z,50.45
2017-12-22T17:41:51.118Z,59.10
2017-12-22T17:44:18.693Z,59.35
2017-12-22T17:46:46.299Z,51.08
2017-12-22T17:49:13.877Z,59.47
2017-12-22T17:51:41.458Z,52.92
2017-12-22T17:54:09.062Z,52.28
2017-12-22T17:56:36.645Z,54.05
2017-12-22T17:59:04.410Z,50.67
2017-12-22T18:01:32.017Z,55.25
2017-12-22T18:04:00.369Z,57.38
2017-12-22T18:06:27.946Z,56.37
2017-12-22T18:08:55.553Z,58.35
2017-12-22T18:11:23.186Z,52.08
2017-12-22T18:13:51.529Z,55.88
2017-12-22T18:16:19.113Z,57.28
2017-12-22T18:18:47.497Z,54.65
2017-12-22T18:21:17.641Z,56.78
2017-12-22T18:23:45.222Z,57.50
2017-12-22T18:26:12.837Z,59.03
2017-12-22T18:28:40.413Z,57.45
2017-12-22T18:31:07.998Z,70.07
2017-12-22T18:33:35.603Z,60.30
2017-12-22T18:36:03.951Z,61.30
2017-12-22T18:38:31.590Z,68.93
2017-12-22T18:40:59.165Z,62.40
2017-12-22T18:43:26.746Z,77.35
2017-12-22T18:45:54.372Z,60.38
2017-12-22T18:48:21.951Z,60.45
2017-12-22T18:50:49.538Z,69.78
2017-12-22T18:53:17.905Z,69.50
2017-12-22T18:55:46.249Z,67.47
2017-12-22T18:58:13.830Z,63.20
2017-12-22T19:00:41.491Z,66.15
2017-12-22T19:03:15.076Z,70.40
2017-12-22T19:05:42.681Z,69.55
2017-12-22T19:08:10.253Z,65.85
2017-12-22T19:10:37.855Z,63.50
2017-12-22T19:13:05.494Z,59.70
2017-12-22T19:15:33.083Z,63.50
2017-12-22T19:18:00.661Z,67.25
2017-12-22T19:20:29.057Z,64.57
2017-12-22T19:22:56.634Z,59.25
2017-12-22T19:25:24.212Z,57.28
2017-12-22T19:27:51.808Z,65.78
2017-12-22T19:30:20.170Z,67.05
2017-12-22T19:32:47.758Z,69.20
2017-12-22T19:35:16.117Z,73.12
2017-12-22T19:37:44.466Z,83.03
2017-12-22T19:40:12.085Z,84.93
2017-12-22T19:42:39.662Z,69.82
2017-12-22T19:45:07.242Z,66.95
2017-12-22T19:47:34.866Z,71.72
2017-12-22T19:50:02.442Z,90.43
2017-12-22T19:52:30.018Z,89.85
2017-12-22T19:54:57.641Z,79.62
2017-12-22T19:57:25.217Z,83.53
2017-12-22T19:59:52.794Z,75.75
2017-12-22T20:02:20.504Z,94.13
2017-12-22T20:04:48.091Z,98.87
2017-12-22T20:07:15.673Z,82.55
2017-12-22T20:09:43.301Z,88.30
2017-12-22T20:12:10.883Z,89.13
2017-12-22T20:14:38.470Z,91.95
2017-12-22T20:17:06.117Z,84.57
2017-12-22T20:19:33.677Z,80.60
2017-12-22T20:22:01.318Z,92.75
2017-12-22T20:24:28.898Z,93.72
2017-12-22T20:26:56.492Z,88.93
2017-12-22T20:29:24.866Z,92.18
2017-12-22T20:31:53.213Z,90.95
2017-12-22T20:34:20.851Z,87.40
2017-12-22T20:36:48.430Z,90.78
2017-12-22T20:39:16.267Z,97.88
2017-12-22T20:41:43.878Z,86.72
2017-12-22T20:44:12.218Z,90.80
2017-12-22T20:46:39.797Z,92.32
2017-12-22T20:49:07.557Z,98.50
2017-12-22T20:51:35.137Z,104.05
2017-12-22T20:54:03.481Z,89.10
2017-12-22T20:56:31.129Z,94.57
2017-12-22T20:58:58.704Z,92.20
2017-12-22T21:01:26.290Z,100.43
2017-12-22T21:03:54.660Z,103.20
2017-12-22T21:06:23.053Z,100.12
2017-12-22T21:08:51.414Z,93.32
2017-12-22T21:11:19.761Z,90.32
2017-12-22T21:13:47.562Z,92.65
2017-12-22T21:16:15.908Z,81.68
2017-12-22T21:18:43.482Z,95.87
2017-12-22T21:21:11.082Z,98.62
2017-12-22T21:23:38.710Z,94.72
2017-12-22T21:26:07.058Z,100.07
2017-12-22T21:28:34.646Z,96.63
2017-12-22T21:31:03.058Z,94.55
2017-12-22T21:33:30.740Z,93.35
2017-12-22T21:35:58.327Z,89.95
2017-12-22T21:38:25.914Z,102.05
2017-12-22T21:40:54.287Z,102.00
2017-12-22T21:43:22.680Z,103.18
2017-12-22T21:45:50.253Z,96.70
2017-12-22T21:48:17.838Z,98.47
2017-12-22T21:50:45.485Z,92.07
2017-12-22T21:53:13.058Z,98.57
2017-12-22T21:55:40.642Z,94.55
2017-12-22T21:58:08.240Z,92.65
2017-12-22T22:00:35.821Z,100.93
2017-12-22T22:03:03.426Z,89.70
2017-12-22T22:05:31.798Z,97.03
2017-12-22T22:07:59.369Z,92.70
2017-12-22T22:10:27.761Z,99.05
2017-12-22T22:12:55.358Z,101.60
2017-12-22T22:15:22.937Z,91.82
2017-12-22T22:17:50.554Z,108.72
2017-12-22T22:20:18.193Z,100.82
2017-12-22T22:22:46.537Z,94.53
2017-12-22T22:25:14.119Z,98.25
2017-12-22T22:27:42.489Z,97.82
2017-12-22T22:30:10.837Z,105.00
2017-12-22T22:32:38.433Z,106.12
2017-12-22T22:35:06.810Z,109.47
2017-12-22T22:37:35.161Z,103.45
2017-12-22T22:40:02.799Z,123.13
2017-12-22T22:42:30.381Z,107.97
2017-12-22T22:44:57.961Z,115.78
2017-12-22T22:47:26.350Z,101.07
2017-12-22T22:49:54.737Z,105.55
2017-12-22T22:52:22.334Z,104.22
2017-12-22T22:54:49.945Z,94.25
2017-12-22T22:57:18.293Z,90.50
2017-12-22T22:59:45.869Z,97.05
2017-12-22T23:02:14.233Z,91.28
2017-12-22T23:04:42.593Z,106.60
2017-12-22T23:07:10.166Z,96.85
2017-12-22T23:09:38.562Z,85.90
2017-12-22T23:12:06.909Z,93.72
2017-12-22T23:14:34.492Z,88.60
2017-12-22T23:17:02.886Z,99.00
2017-12-22T23:19:30.466Z,95.97
2017-12-22T23:21:58.041Z,93.90
2017-12-22T23:24:25.655Z,94.47
2017-12-22T23:26:54.020Z,91.80
2017-12-22T23:29:21.598Z,84.97
